sensor_id;sensor_type;location;lat;lon;timestamp;P1;durP1;ratioP1;P2;durP2;ratioP2
2362;SDS011;1192;51.664;7.626;2022-10-03T00:02:00;623.38;;;453.83;;
2362;SDS011;1192;51.664;7.626;2022-10-03T00:04:44;634.60;;;471.92;;
2362;SDS011;1192;51.664;7.626;2022-10-03T00:07:28;629.97;;;463.40;;
2362;SDS011;1192;51.664;7.626;2022-10-03T00:10:21;634.25;;;470.58;;
2362;SDS011;1192;51.664;7.626;2022-10-03T00:13:01;639.47;;;475.48;;
2362;SDS011;1192;51.664;7.626;2022-10-03T00:15:34;632.17;;;459.25;;
2362;SDS011;1192;51.664;7.626;2022-10-03T00:18:08;630.28;;;449.95;;
2362;SDS011;1192;51.664;7.626;2022-10-03T00:20:48;631.15;;;463.88;;
2362;SDS011;1192;51.664;7.626;2022-10-03T00:23:26;638.03;;;467.35;;
2362;SDS011;1192;51.664;7.626;2022-10-03T00:26:05;630.33;;;457.20;;
2362;SDS011;1192;51.664;7.626;2022-10-03T00:28:59;643.75;;;458.60;;
2362;SDS011;1192;51.664;7.626;2022-10-03T00:31:36;640.15;;;478.33;;
2362;SDS011;1192;51.664;7.626;2022-10-03T00:34:15;640.70;;;461.58;;
2362;SDS011;1192;51.664;7.626;2022-10-03T00:36:49;645.45;;;465.52;;
2362;SDS011;1192;51.664;7.626;2022-10-03T00:39:30;649.70;;;471.45;;
2362;SDS011;1192;51.664;7.626;2022-10-03T00:42:20;655.72;;;458.80;;
2362;SDS011;1192;51.664;7.626;2022-10-03T00:45:19;644.20;;;455.48;;
2362;SDS011;1192;51.664;7.626;2022-10-03T00:48:33;669.40;;;446.23;;
2362;SDS011;1192;51.664;7.626;2022-10-03T00:51:31;659.30;;;453.48;;
2362;SDS011;1192;51.664;7.626;2022-10-03T00:54:20;651.10;;;449.85;;
2362;SDS011;1192;51.664;7.626;2022-10-03T00:57:16;659.22;;;451.90;;
2362;SDS011;1192;51.664;7.626;2022-10-03T01:00:04;657.63;;;432.08;;
2362;SDS011;1192;51.664;7.626;2022-10-03T01:03:00;651.20;;;446.23;;
2362;SDS011;1192;51.664;7.626;2022-10-03T01:05:46;664.83;;;445.92;;
2362;SDS011;1192;51.664;7.626;2022-10-03T01:11:19;671.00;;;441.92;;
2362;SDS011;1192;51.664;7.626;2022-10-03T01:14:01;676.22;;;454.80;;
2362;SDS011;1192;51.664;7.626;2022-10-03T01:16:38;671.53;;;451.60;;
2362;SDS011;1192;51.664;7.626;2022-10-03T01:19:23;666.15;;;455.80;;
2362;SDS011;1192;51.664;7.626;2022-10-03T01:22:14;639.55;;;448.17;;
2362;SDS011;1192;51.664;7.626;2022-10-03T01:24:58;673.13;;;435.73;;
2362;SDS011;1192;51.664;7.626;2022-10-03T01:27:37;676.85;;;448.90;;
2362;SDS011;1192;51.664;7.626;2022-10-03T01:30:24;652.65;;;451.95;;
2362;SDS011;1192;51.664;7.626;2022-10-03T01:32:56;674.25;;;454.40;;
2362;SDS011;1192;51.664;7.626;2022-10-03T01:35:30;631.17;;;453.02;;
2362;SDS011;1192;51.664;7.626;2022-10-03T01:38:07;657.53;;;446.58;;
2362;SDS011;1192;51.664;7.626;2022-10-03T01:40:45;664.50;;;438.77;;
2362;SDS011;1192;51.664;7.626;2022-10-03T01:43:16;621.95;;;420.05;;
2362;SDS011;1192;51.664;7.626;2022-10-03T01:45:51;628.70;;;447.95;;
2362;SDS011;1192;51.664;7.626;2022-10-03T01:48:25;604.35;;;428.27;;
2362;SDS011;1192;51.664;7.626;2022-10-03T01:50:59;609.03;;;446.27;;
2362;SDS011;1192;51.664;7.626;2022-10-03T01:53:32;605.75;;;443.30;;
2362;SDS011;1192;51.664;7.626;2022-10-03T01:56:07;622.95;;;448.42;;
2362;SDS011;1192;51.664;7.626;2022-10-03T01:58:45;603.83;;;450.25;;
2362;SDS011;1192;51.664;7.626;2022-10-03T02:01:23;622.15;;;452.88;;
2362;SDS011;1192;51.664;7.626;2022-10-03T02:03:54;634.47;;;438.05;;
2362;SDS011;1192;51.664;7.626;2022-10-03T02:06:31;650.47;;;436.70;;
2362;SDS011;1192;51.664;7.626;2022-10-03T02:09:06;647.25;;;445.60;;
2362;SDS011;1192;51.664;7.626;2022-10-03T02:11:55;627.47;;;447.08;;
2362;SDS011;1192;51.664;7.626;2022-10-03T02:14:28;632.38;;;447.80;;
2362;SDS011;1192;51.664;7.626;2022-10-03T02:17:05;548.83;;;424.83;;
2362;SDS011;1192;51.664;7.626;2022-10-03T02:19:40;578.38;;;440.38;;
2362;SDS011;1192;51.664;7.626;2022-10-03T02:22:14;578.85;;;440.48;;
2362;SDS011;1192;51.664;7.626;2022-10-03T02:24:55;582.63;;;450.10;;
2362;SDS011;1192;51.664;7.626;2022-10-03T02:30:36;595.25;;;426.30;;
2362;SDS011;1192;51.664;7.626;2022-10-03T02:36:14;617.55;;;436.10;;
2362;SDS011;1192;51.664;7.626;2022-10-03T02:39:10;609.97;;;430.70;;
2362;SDS011;1192;51.664;7.626;2022-10-03T02:42:26;633.25;;;434.27;;
2362;SDS011;1192;51.664;7.626;2022-10-03T02:51:34;640.80;;;421.77;;
2362;SDS011;1192;51.664;7.626;2022-10-03T03:00:21;646.97;;;441.77;;
2362;SDS011;1192;51.664;7.626;2022-10-03T03:06:07;638.30;;;422.33;;
2362;SDS011;1192;51.664;7.626;2022-10-03T03:12:30;631.17;;;401.40;;
2362;SDS011;1192;51.664;7.626;2022-10-03T03:18:51;650.90;;;413.90;;
2362;SDS011;1192;51.664;7.626;2022-10-03T03:21:33;637.83;;;420.27;;
2362;SDS011;1192;51.664;7.626;2022-10-03T03:24:11;633.85;;;428.25;;
2362;SDS011;1192;51.664;7.626;2022-10-03T03:26:54;638.70;;;421.48;;
2362;SDS011;1192;51.664;7.626;2022-10-03T03:29:41;617.30;;;429.20;;
2362;SDS011;1192;51.664;7.626;2022-10-03T03:32:18;620.45;;;426.08;;
2362;SDS011;1192;51.664;7.626;2022-10-03T03:34:57;613.30;;;424.02;;
2362;SDS011;1192;51.664;7.626;2022-10-03T03:37:33;635.38;;;429.58;;
2362;SDS011;1192;51.664;7.626;2022-10-03T03:40:17;630.65;;;428.83;;
2362;SDS011;1192;51.664;7.626;2022-10-03T03:43:01;661.80;;;428.50;;
2362;SDS011;1192;51.664;7.626;2022-10-03T03:45:44;646.88;;;422.50;;
2362;SDS011;1192;51.664;7.626;2022-10-03T03:48:34;615.33;;;432.00;;
2362;SDS011;1192;51.664;7.626;2022-10-03T03:51:19;632.55;;;422.52;;
2362;SDS011;1192;51.664;7.626;2022-10-03T03:57:00;658.17;;;423.30;;
2362;SDS011;1192;51.664;7.626;2022-10-03T03:59:43;609.60;;;414.02;;
2362;SDS011;1192;51.664;7.626;2022-10-03T04:02:27;629.15;;;416.45;;
2362;SDS011;1192;51.664;7.626;2022-10-03T04:05:10;667.35;;;413.85;;
2362;SDS011;1192;51.664;7.626;2022-10-03T04:07:50;645.13;;;422.15;;
2362;SDS011;1192;51.664;7.626;2022-10-03T04:10:41;664.05;;;422.98;;
2362;SDS011;1192;51.664;7.626;2022-10-03T04:13:29;644.67;;;416.58;;
2362;SDS011;1192;51.664;7.626;2022-10-03T04:16:15;663.85;;;426.65;;
2362;SDS011;1192;51.664;7.626;2022-10-03T04:19:13;671.33;;;417.13;;
2362;SDS011;1192;51.664;7.626;2022-10-03T04:21:57;645.90;;;416.45;;
2362;SDS011;1192;51.664;7.626;2022-10-03T04:24:45;640.25;;;414.45;;
2362;SDS011;1192;51.664;7.626;2022-10-03T04:27:48;670.10;;;413.75;;
2362;SDS011;1192;51.664;7.626;2022-10-03T04:30:33;662.88;;;405.98;;
2362;SDS011;1192;51.664;7.626;2022-10-03T04:33:14;625.60;;;405.20;;
2362;SDS011;1192;51.664;7.626;2022-10-03T04:36:13;633.95;;;414.60;;
2362;SDS011;1192;51.664;7.626;2022-10-03T04:38:58;634.42;;;407.98;;
2362;SDS011;1192;51.664;7.626;2022-10-03T04:41:35;657.03;;;409.20;;
2362;SDS011;1192;51.664;7.626;2022-10-03T04:44:14;621.25;;;414.55;;
2362;SDS011;1192;51.664;7.626;2022-10-03T04:46:55;660.92;;;404.23;;
2362;SDS011;1192;51.664;7.626;2022-10-03T04:49:28;635.33;;;418.38;;
2362;SDS011;1192;51.664;7.626;2022-10-03T04:52:01;644.30;;;415.85;;
2362;SDS011;1192;51.664;7.626;2022-10-03T04:54:35;565.30;;;413.70;;
2362;SDS011;1192;51.664;7.626;2022-10-03T04:57:14;558.92;;;404.50;;
2362;SDS011;1192;51.664;7.626;2022-10-03T04:59:49;558.75;;;415.48;;
2362;SDS011;1192;51.664;7.626;2022-10-03T05:02:27;562.38;;;425.25;;
2362;SDS011;1192;51.664;7.626;2022-10-03T05:08:02;559.65;;;404.50;;
2362;SDS011;1192;51.664;7.626;2022-10-03T05:10:47;557.50;;;392.30;;
2362;SDS011;1192;51.664;7.626;2022-10-03T05:13:28;565.53;;;401.67;;
2362;SDS011;1192;51.664;7.626;2022-10-03T05:16:05;567.35;;;402.83;;
2362;SDS011;1192;51.664;7.626;2022-10-03T05:18:40;568.72;;;410.35;;
2362;SDS011;1192;51.664;7.626;2022-10-03T05:21:13;561.60;;;404.73;;
2362;SDS011;1192;51.664;7.626;2022-10-03T05:23:51;566.58;;;407.05;;
2362;SDS011;1192;51.664;7.626;2022-10-03T05:26:29;574.95;;;408.98;;
2362;SDS011;1192;51.664;7.626;2022-10-03T05:29:05;581.63;;;401.88;;
2362;SDS011;1192;51.664;7.626;2022-10-03T05:31:45;591.67;;;408.25;;
2362;SDS011;1192;51.664;7.626;2022-10-03T05:34:22;595.72;;;415.42;;
2362;SDS011;1192;51.664;7.626;2022-10-03T05:37:07;584.45;;;394.90;;
2362;SDS011;1192;51.664;7.626;2022-10-03T05:39:52;590.95;;;383.90;;
2362;SDS011;1192;51.664;7.626;2022-10-03T05:42:28;635.97;;;408.17;;
2362;SDS011;1192;51.664;7.626;2022-10-03T05:45:01;602.10;;;389.83;;
2362;SDS011;1192;51.664;7.626;2022-10-03T05:47:32;601.45;;;404.08;;
2362;SDS011;1192;51.664;7.626;2022-10-03T05:50:19;608.53;;;409.05;;
2362;SDS011;1192;51.664;7.626;2022-10-03T05:53:10;634.20;;;399.05;;
2362;SDS011;1192;51.664;7.626;2022-10-03T05:56:11;645.75;;;405.10;;
2362;SDS011;1192;51.664;7.626;2022-10-03T05:59:04;628.17;;;406.52;;
2362;SDS011;1192;51.664;7.626;2022-10-03T06:08:08;619.53;;;383.42;;
2362;SDS011;1192;51.664;7.626;2022-10-03T06:10:58;605.90;;;392.02;;
2362;SDS011;1192;51.664;7.626;2022-10-03T06:13:36;569.70;;;393.45;;
2362;SDS011;1192;51.664;7.626;2022-10-03T06:16:20;578.40;;;404.75;;
2362;SDS011;1192;51.664;7.626;2022-10-03T06:19:08;626.08;;;409.42;;
2362;SDS011;1192;51.664;7.626;2022-10-03T06:22:04;554.25;;;392.30;;
2362;SDS011;1192;51.664;7.626;2022-10-03T06:31:07;582.75;;;393.90;;
2362;SDS011;1192;51.664;7.626;2022-10-03T06:39:56;550.28;;;382.77;;
2362;SDS011;1192;51.664;7.626;2022-10-03T06:46:10;589.03;;;403.90;;
2362;SDS011;1192;51.664;7.626;2022-10-03T06:52:05;491.88;;;400.23;;
2362;SDS011;1192;51.664;7.626;2022-10-03T06:58:16;496.60;;;414.23;;
2362;SDS011;1192;51.664;7.626;2022-10-03T07:01:00;489.67;;;415.30;;
2362;SDS011;1192;51.664;7.626;2022-10-03T07:04:13;489.55;;;415.13;;
2362;SDS011;1192;51.664;7.626;2022-10-03T07:07:08;501.05;;;431.65;;
2362;SDS011;1192;51.664;7.626;2022-10-03T07:13:10;503.15;;;448.02;;
2362;SDS011;1192;51.664;7.626;2022-10-03T07:16:16;503.73;;;443.98;;
2362;SDS011;1192;51.664;7.626;2022-10-03T07:19:03;505.48;;;450.38;;
2362;SDS011;1192;51.664;7.626;2022-10-03T07:27:50;527.08;;;471.33;;
2362;SDS011;1192;51.664;7.626;2022-10-03T07:30:29;562.30;;;506.05;;
2362;SDS011;1192;51.664;7.626;2022-10-03T07:33:25;570.80;;;513.78;;
2362;SDS011;1192;51.664;7.626;2022-10-03T07:36:21;566.13;;;509.35;;
2362;SDS011;1192;51.664;7.626;2022-10-03T07:39:24;550.08;;;494.80;;
2362;SDS011;1192;51.664;7.626;2022-10-03T07:42:14;583.53;;;526.00;;
2362;SDS011;1192;51.664;7.626;2022-10-03T07:45:03;584.33;;;526.92;;
2362;SDS011;1192;51.664;7.626;2022-10-03T07:48:02;600.25;;;540.90;;
2362;SDS011;1192;51.664;7.626;2022-10-03T07:50:49;603.25;;;542.20;;
2362;SDS011;1192;51.664;7.626;2022-10-03T08:00:07;613.20;;;551.22;;
2362;SDS011;1192;51.664;7.626;2022-10-03T08:06:14;614.13;;;551.58;;
2362;SDS011;1192;51.664;7.626;2022-10-03T08:12:10;621.40;;;559.28;;
2362;SDS011;1192;51.664;7.626;2022-10-03T08:14:59;636.33;;;573.63;;
2362;SDS011;1192;51.664;7.626;2022-10-03T08:17:48;643.67;;;581.05;;
2362;SDS011;1192;51.664;7.626;2022-10-03T08:20:35;643.58;;;580.13;;
2362;SDS011;1192;51.664;7.626;2022-10-03T08:23:14;633.88;;;571.17;;
2362;SDS011;1192;51.664;7.626;2022-10-03T08:26:04;648.35;;;586.10;;
2362;SDS011;1192;51.664;7.626;2022-10-03T08:35:00;662.00;;;598.42;;
2362;SDS011;1192;51.664;7.626;2022-10-03T08:38:13;634.90;;;573.72;;
2362;SDS011;1192;51.664;7.626;2022-10-03T08:44:09;633.60;;;573.00;;
2362;SDS011;1192;51.664;7.626;2022-10-03T08:47:11;641.42;;;580.20;;
2362;SDS011;1192;51.664;7.626;2022-10-03T08:50:23;637.20;;;576.63;;
2362;SDS011;1192;51.664;7.626;2022-10-03T08:53:05;644.10;;;583.22;;
2362;SDS011;1192;51.664;7.626;2022-10-03T08:55:56;636.78;;;578.17;;
2362;SDS011;1192;51.664;7.626;2022-10-03T08:58:45;612.53;;;566.55;;
2362;SDS011;1192;51.664;7.626;2022-10-03T09:01:40;644.53;;;586.53;;
2362;SDS011;1192;51.664;7.626;2022-10-03T09:07:31;654.10;;;593.47;;
2362;SDS011;1192;51.664;7.626;2022-10-03T09:13:07;649.60;;;588.88;;
2362;SDS011;1192;51.664;7.626;2022-10-03T09:16:12;646.05;;;584.80;;
2362;SDS011;1192;51.664;7.626;2022-10-03T09:19:08;620.72;;;561.17;;
2362;SDS011;1192;51.664;7.626;2022-10-03T09:21:55;627.55;;;567.00;;
2362;SDS011;1192;51.664;7.626;2022-10-03T09:24:58;626.75;;;567.08;;
2362;SDS011;1192;51.664;7.626;2022-10-03T09:27:42;632.50;;;571.55;;
2362;SDS011;1192;51.664;7.626;2022-10-03T09:30:30;628.17;;;566.92;;
2362;SDS011;1192;51.664;7.626;2022-10-03T09:36:32;644.55;;;583.72;;
2362;SDS011;1192;51.664;7.626;2022-10-03T09:39:31;635.47;;;574.88;;
2362;SDS011;1192;51.664;7.626;2022-10-03T09:42:22;657.25;;;596.45;;
2362;SDS011;1192;51.664;7.626;2022-10-03T09:45:09;642.65;;;581.80;;
2362;SDS011;1192;51.664;7.626;2022-10-03T09:48:04;639.65;;;579.55;;
2362;SDS011;1192;51.664;7.626;2022-10-03T09:54:18;630.72;;;570.75;;
2362;SDS011;1192;51.664;7.626;2022-10-03T09:57:14;626.40;;;566.92;;
2362;SDS011;1192;51.664;7.626;2022-10-03T10:00:10;612.80;;;553.75;;
2362;SDS011;1192;51.664;7.626;2022-10-03T10:03:04;616.80;;;557.80;;
2362;SDS011;1192;51.664;7.626;2022-10-03T10:11:55;612.22;;;553.03;;
2362;SDS011;1192;51.664;7.626;2022-10-03T10:14:58;605.50;;;546.92;;
2362;SDS011;1192;51.664;7.626;2022-10-03T10:20:53;617.53;;;558.67;;
2362;SDS011;1192;51.664;7.626;2022-10-03T10:23:45;613.47;;;553.95;;
2362;SDS011;1192;51.664;7.626;2022-10-03T10:29:42;615.55;;;556.22;;
2362;SDS011;1192;51.664;7.626;2022-10-03T10:35:58;602.80;;;544.40;;
2362;SDS011;1192;51.664;7.626;2022-10-03T10:38:50;587.95;;;530.67;;
2362;SDS011;1192;51.664;7.626;2022-10-03T10:54:31;598.92;;;542.25;;
2362;SDS011;1192;51.664;7.626;2022-10-03T10:57:50;601.72;;;544.88;;
2362;SDS011;1192;51.664;7.626;2022-10-03T11:01:02;582.55;;;526.30;;
2362;SDS011;1192;51.664;7.626;2022-10-03T11:04:05;594.63;;;538.00;;
2362;SDS011;1192;51.664;7.626;2022-10-03T11:10:09;594.90;;;537.95;;
2362;SDS011;1192;51.664;7.626;2022-10-03T11:16:07;607.58;;;550.00;;
2362;SDS011;1192;51.664;7.626;2022-10-03T11:22:26;581.97;;;525.60;;
2362;SDS011;1192;51.664;7.626;2022-10-03T11:28:36;600.58;;;543.53;;
2362;SDS011;1192;51.664;7.626;2022-10-03T11:34:55;597.13;;;540.22;;
2362;SDS011;1192;51.664;7.626;2022-10-03T11:37:46;591.53;;;534.78;;
2362;SDS011;1192;51.664;7.626;2022-10-03T11:40:26;610.83;;;553.75;;
2362;SDS011;1192;51.664;7.626;2022-10-03T11:43:05;606.30;;;549.30;;
2362;SDS011;1192;51.664;7.626;2022-10-03T11:45:48;607.35;;;550.55;;
2362;SDS011;1192;51.664;7.626;2022-10-03T11:48:25;616.67;;;559.25;;
2362;SDS011;1192;51.664;7.626;2022-10-03T11:51:04;595.70;;;538.63;;
2362;SDS011;1192;51.664;7.626;2022-10-03T11:53:45;621.53;;;564.10;;
2362;SDS011;1192;51.664;7.626;2022-10-03T11:56:23;611.35;;;554.00;;
2362;SDS011;1192;51.664;7.626;2022-10-03T12:01:59;615.20;;;558.17;;
2362;SDS011;1192;51.664;7.626;2022-10-03T12:04:50;613.83;;;556.47;;
2362;SDS011;1192;51.664;7.626;2022-10-03T12:10:36;636.13;;;578.33;;
2362;SDS011;1192;51.664;7.626;2022-10-03T12:13:11;606.70;;;549.60;;
2362;SDS011;1192;51.664;7.626;2022-10-03T12:15:41;608.10;;;551.08;;
2362;SDS011;1192;51.664;7.626;2022-10-03T12:18:13;623.10;;;565.63;;
2362;SDS011;1192;51.664;7.626;2022-10-03T12:20:51;619.67;;;562.63;;
2362;SDS011;1192;51.664;7.626;2022-10-03T12:23:31;606.15;;;549.00;;
2362;SDS011;1192;51.664;7.626;2022-10-03T12:26:12;607.33;;;550.33;;
2362;SDS011;1192;51.664;7.626;2022-10-03T12:28:42;623.83;;;566.40;;
2362;SDS011;1192;51.664;7.626;2022-10-03T12:31:15;628.33;;;570.58;;
2362;SDS011;1192;51.664;7.626;2022-10-03T12:33:50;620.45;;;563.35;;
2362;SDS011;1192;51.664;7.626;2022-10-03T12:36:22;617.15;;;560.03;;
2362;SDS011;1192;51.664;7.626;2022-10-03T12:38:57;627.97;;;570.75;;
2362;SDS011;1192;51.664;7.626;2022-10-03T12:41:45;632.15;;;574.40;;
2362;SDS011;1192;51.664;7.626;2022-10-03T12:44:25;632.97;;;575.17;;
2362;SDS011;1192;51.664;7.626;2022-10-03T12:47:05;642.53;;;584.22;;
2362;SDS011;1192;51.664;7.626;2022-10-03T12:49:46;632.38;;;573.90;;
2362;SDS011;1192;51.664;7.626;2022-10-03T12:52:20;643.20;;;584.63;;
2362;SDS011;1192;51.664;7.626;2022-10-03T12:54:53;633.17;;;574.53;;
2362;SDS011;1192;51.664;7.626;2022-10-03T13:00:20;625.22;;;566.25;;
2362;SDS011;1192;51.664;7.626;2022-10-03T13:05:54;631.35;;;572.53;;
2362;SDS011;1192;51.664;7.626;2022-10-03T13:08:50;632.08;;;573.38;;
2362;SDS011;1192;51.664;7.626;2022-10-03T13:11:30;628.97;;;569.78;;
2362;SDS011;1192;51.664;7.626;2022-10-03T13:14:08;629.00;;;570.10;;
2362;SDS011;1192;51.664;7.626;2022-10-03T13:16:49;638.97;;;580.58;;
2362;SDS011;1192;51.664;7.626;2022-10-03T13:19:25;635.83;;;577.38;;
2362;SDS011;1192;51.664;7.626;2022-10-03T13:22:00;642.20;;;583.78;;
2362;SDS011;1192;51.664;7.626;2022-10-03T13:24:32;643.67;;;584.97;;
2362;SDS011;1192;51.664;7.626;2022-10-03T13:27:14;631.47;;;573.58;;
2362;SDS011;1192;51.664;7.626;2022-10-03T13:30:03;636.78;;;578.42;;
2362;SDS011;1192;51.664;7.626;2022-10-03T13:32:32;650.92;;;592.20;;
2362;SDS011;1192;51.664;7.626;2022-10-03T13:35:07;635.30;;;577.25;;
2362;SDS011;1192;51.664;7.626;2022-10-03T13:41:13;622.83;;;564.58;;
2362;SDS011;1192;51.664;7.626;2022-10-03T13:43:50;621.75;;;566.58;;
2362;SDS011;1192;51.664;7.626;2022-10-03T13:46:28;635.10;;;579.33;;
2362;SDS011;1192;51.664;7.626;2022-10-03T13:49:03;616.88;;;565.05;;
2362;SDS011;1192;51.664;7.626;2022-10-03T13:51:44;658.92;;;602.85;;
2362;SDS011;1192;51.664;7.626;2022-10-03T13:54:17;639.17;;;583.33;;
2362;SDS011;1192;51.664;7.626;2022-10-03T13:57:06;635.08;;;579.70;;
2362;SDS011;1192;51.664;7.626;2022-10-03T13:59:52;634.10;;;578.47;;
2362;SDS011;1192;51.664;7.626;2022-10-03T14:02:40;629.08;;;572.95;;
2362;SDS011;1192;51.664;7.626;2022-10-03T14:05:18;637.30;;;581.60;;
2362;SDS011;1192;51.664;7.626;2022-10-03T14:08:03;626.67;;;571.67;;
2362;SDS011;1192;51.664;7.626;2022-10-03T14:13:47;629.55;;;573.85;;
2362;SDS011;1192;51.664;7.626;2022-10-03T14:16:35;631.58;;;574.33;;
2362;SDS011;1192;51.664;7.626;2022-10-03T14:19:10;626.35;;;568.53;;
2362;SDS011;1192;51.664;7.626;2022-10-03T14:21:50;653.08;;;593.83;;
2362;SDS011;1192;51.664;7.626;2022-10-03T14:24:26;628.58;;;569.22;;
2362;SDS011;1192;51.664;7.626;2022-10-03T14:27:03;641.75;;;582.80;;
2362;SDS011;1192;51.664;7.626;2022-10-03T14:29:39;640.30;;;581.67;;
2362;SDS011;1192;51.664;7.626;2022-10-03T14:32:17;632.17;;;574.53;;
2362;SDS011;1192;51.664;7.626;2022-10-03T14:34:54;617.63;;;559.83;;
2362;SDS011;1192;51.664;7.626;2022-10-03T14:37:29;630.97;;;572.20;;
2362;SDS011;1192;51.664;7.626;2022-10-03T14:40:11;639.47;;;580.75;;
2362;SDS011;1192;51.664;7.626;2022-10-03T14:42:55;636.22;;;578.50;;
2362;SDS011;1192;51.664;7.626;2022-10-03T14:45:31;639.90;;;581.38;;
2362;SDS011;1192;51.664;7.626;2022-10-03T14:48:03;642.15;;;583.55;;
2362;SDS011;1192;51.664;7.626;2022-10-03T14:50:34;643.05;;;584.20;;
2362;SDS011;1192;51.664;7.626;2022-10-03T14:53:06;647.50;;;588.13;;
2362;SDS011;1192;51.664;7.626;2022-10-03T14:55:42;648.88;;;589.40;;
2362;SDS011;1192;51.664;7.626;2022-10-03T14:58:19;641.55;;;582.85;;
2362;SDS011;1192;51.664;7.626;2022-10-03T15:00:48;656.40;;;596.55;;
2362;SDS011;1192;51.664;7.626;2022-10-03T15:03:29;649.20;;;589.45;;
2362;SDS011;1192;51.664;7.626;2022-10-03T15:08:55;649.00;;;589.70;;
2362;SDS011;1192;51.664;7.626;2022-10-03T15:11:28;641.22;;;581.95;;
2362;SDS011;1192;51.664;7.626;2022-10-03T15:14:00;655.58;;;596.10;;
2362;SDS011;1192;51.664;7.626;2022-10-03T15:16:31;633.30;;;574.00;;
2362;SDS011;1192;51.664;7.626;2022-10-03T15:19:02;630.65;;;572.05;;
2362;SDS011;1192;51.664;7.626;2022-10-03T15:21:33;650.75;;;591.92;;
2362;SDS011;1192;51.664;7.626;2022-10-03T15:24:03;653.47;;;594.35;;
2362;SDS011;1192;51.664;7.626;2022-10-03T15:26:36;648.10;;;589.45;;
2362;SDS011;1192;51.664;7.626;2022-10-03T15:29:06;625.38;;;567.25;;
2362;SDS011;1192;51.664;7.626;2022-10-03T15:31:40;653.13;;;594.67;;
2362;SDS011;1192;51.664;7.626;2022-10-03T15:34:13;669.38;;;610.65;;
2362;SDS011;1192;51.664;7.626;2022-10-03T15:36:45;666.47;;;608.33;;
2362;SDS011;1192;51.664;7.626;2022-10-03T15:39:17;659.05;;;600.88;;
2362;SDS011;1192;51.664;7.626;2022-10-03T15:41:50;649.63;;;591.50;;
2362;SDS011;1192;51.664;7.626;2022-10-03T15:44:21;659.35;;;600.88;;
2362;SDS011;1192;51.664;7.626;2022-10-03T15:46:53;661.97;;;604.03;;
2362;SDS011;1192;51.664;7.626;2022-10-03T15:49:26;639.10;;;582.05;;
2362;SDS011;1192;51.664;7.626;2022-10-03T15:51:56;650.50;;;592.65;;
2362;SDS011;1192;51.664;7.626;2022-10-03T15:54:26;642.03;;;583.97;;
2362;SDS011;1192;51.664;7.626;2022-10-03T15:56:56;638.63;;;580.67;;
2362;SDS011;1192;51.664;7.626;2022-10-03T15:59:27;637.38;;;579.17;;
2362;SDS011;1192;51.664;7.626;2022-10-03T16:01:57;648.97;;;590.70;;
2362;SDS011;1192;51.664;7.626;2022-10-03T16:04:31;651.78;;;593.53;;
2362;SDS011;1192;51.664;7.626;2022-10-03T16:07:02;649.78;;;591.38;;
2362;SDS011;1192;51.664;7.626;2022-10-03T16:09:37;649.70;;;592.38;;
2362;SDS011;1192;51.664;7.626;2022-10-03T16:12:25;654.55;;;597.78;;
2362;SDS011;1192;51.664;7.626;2022-10-03T16:15:13;635.80;;;578.85;;
2362;SDS011;1192;51.664;7.626;2022-10-03T16:17:45;638.55;;;581.83;;
2362;SDS011;1192;51.664;7.626;2022-10-03T16:20:16;632.78;;;576.55;;
2362;SDS011;1192;51.664;7.626;2022-10-03T16:22:47;628.95;;;572.35;;
2362;SDS011;1192;51.664;7.626;2022-10-03T16:25:18;638.53;;;580.22;;
2362;SDS011;1192;51.664;7.626;2022-10-03T16:27:50;642.80;;;585.15;;
2362;SDS011;1192;51.664;7.626;2022-10-03T16:30:20;654.83;;;597.25;;
2362;SDS011;1192;51.664;7.626;2022-10-03T16:32:58;636.92;;;579.50;;
2362;SDS011;1192;51.664;7.626;2022-10-03T16:35:30;640.25;;;582.20;;
2362;SDS011;1192;51.664;7.626;2022-10-03T16:37:59;640.75;;;583.25;;
2362;SDS011;1192;51.664;7.626;2022-10-03T16:40:31;670.17;;;611.42;;
2362;SDS011;1192;51.664;7.626;2022-10-03T16:43:02;638.70;;;580.90;;
2362;SDS011;1192;51.664;7.626;2022-10-03T16:45:34;640.90;;;583.30;;
2362;SDS011;1192;51.664;7.626;2022-10-03T16:48:08;643.47;;;585.08;;
2362;SDS011;1192;51.664;7.626;2022-10-03T16:50:55;635.75;;;578.17;;
2362;SDS011;1192;51.664;7.626;2022-10-03T16:53:23;621.33;;;564.28;;
2362;SDS011;1192;51.664;7.626;2022-10-03T16:55:53;637.72;;;580.88;;
2362;SDS011;1192;51.664;7.626;2022-10-03T16:58:24;635.45;;;579.15;;
2362;SDS011;1192;51.664;7.626;2022-10-03T17:00:55;631.03;;;574.53;;
2362;SDS011;1192;51.664;7.626;2022-10-03T17:03:27;630.08;;;572.97;;
2362;SDS011;1192;51.664;7.626;2022-10-03T17:05:57;632.28;;;575.45;;
2362;SDS011;1192;51.664;7.626;2022-10-03T17:08:26;619.38;;;563.38;;
2362;SDS011;1192;51.664;7.626;2022-10-03T17:10:59;637.33;;;579.63;;
2362;SDS011;1192;51.664;7.626;2022-10-03T17:13:30;615.25;;;559.90;;
2362;SDS011;1192;51.664;7.626;2022-10-03T17:16:06;606.63;;;551.00;;
2362;SDS011;1192;51.664;7.626;2022-10-03T17:18:39;626.70;;;570.55;;
2362;SDS011;1192;51.664;7.626;2022-10-03T17:21:13;628.15;;;571.50;;
2362;SDS011;1192;51.664;7.626;2022-10-03T17:23:47;627.03;;;570.40;;
2362;SDS011;1192;51.664;7.626;2022-10-03T17:26:23;627.25;;;571.20;;
2362;SDS011;1192;51.664;7.626;2022-10-03T17:28:55;622.70;;;566.78;;
2362;SDS011;1192;51.664;7.626;2022-10-03T17:31:29;635.30;;;578.72;;
2362;SDS011;1192;51.664;7.626;2022-10-03T17:34:03;615.75;;;559.90;;
2362;SDS011;1192;51.664;7.626;2022-10-03T17:36:38;626.42;;;569.35;;
2362;SDS011;1192;51.664;7.626;2022-10-03T17:39:34;625.00;;;568.38;;
2362;SDS011;1192;51.664;7.626;2022-10-03T17:42:09;622.47;;;566.13;;
2362;SDS011;1192;51.664;7.626;2022-10-03T17:44:53;639.78;;;582.30;;
2362;SDS011;1192;51.664;7.626;2022-10-03T17:47:25;624.35;;;568.13;;
2362;SDS011;1192;51.664;7.626;2022-10-03T17:49:59;629.90;;;572.88;;
2362;SDS011;1192;51.664;7.626;2022-10-03T17:52:31;622.55;;;565.60;;
2362;SDS011;1192;51.664;7.626;2022-10-03T17:55:01;623.97;;;566.00;;
2362;SDS011;1192;51.664;7.626;2022-10-03T17:57:33;634.72;;;576.85;;
2362;SDS011;1192;51.664;7.626;2022-10-03T18:00:04;627.30;;;569.95;;
2362;SDS011;1192;51.664;7.626;2022-10-03T18:02:34;614.15;;;557.47;;
2362;SDS011;1192;51.664;7.626;2022-10-03T18:05:09;623.05;;;565.50;;
2362;SDS011;1192;51.664;7.626;2022-10-03T18:07:40;622.22;;;565.00;;
2362;SDS011;1192;51.664;7.626;2022-10-03T18:10:14;620.20;;;563.05;;
2362;SDS011;1192;51.664;7.626;2022-10-03T18:12:46;621.38;;;564.60;;
2362;SDS011;1192;51.664;7.626;2022-10-03T18:15:29;634.20;;;576.75;;
2362;SDS011;1192;51.664;7.626;2022-10-03T18:18:23;617.10;;;559.53;;
2362;SDS011;1192;51.664;7.626;2022-10-03T18:21:21;603.40;;;546.22;;
2362;SDS011;1192;51.664;7.626;2022-10-03T18:24:09;607.58;;;549.53;;
2362;SDS011;1192;51.664;7.626;2022-10-03T18:26:44;614.60;;;557.50;;
2362;SDS011;1192;51.664;7.626;2022-10-03T18:29:17;619.92;;;561.65;;
2362;SDS011;1192;51.664;7.626;2022-10-03T18:31:51;628.10;;;570.03;;
2362;SDS011;1192;51.664;7.626;2022-10-03T18:34:23;602.53;;;544.65;;
2362;SDS011;1192;51.664;7.626;2022-10-03T18:36:58;626.90;;;568.15;;
2362;SDS011;1192;51.664;7.626;2022-10-03T18:39:28;622.63;;;564.15;;
2362;SDS011;1192;51.664;7.626;2022-10-03T18:41:59;621.53;;;563.03;;